sensor_id;sensor_type;location;lat;lon;timestamp;P1;durP1;ratioP1;P2;durP2;ratioP2
974;SDS011;6115;49.296;10.602;2022-08-19T00:00:23;23.63;;;21.43;;
974;SDS011;6115;49.296;10.602;2022-08-19T00:05:23;24.43;;;22.03;;
974;SDS011;6115;49.296;10.602;2022-08-19T00:10:24;23.37;;;21.23;;
974;SDS011;6115;49.296;10.602;2022-08-19T00:15:25;22.53;;;20.43;;
974;SDS011;6115;49.296;10.602;2022-08-19T00:20:25;24.17;;;21.83;;
974;SDS011;6115;49.296;10.602;2022-08-19T00:25:26;23.07;;;20.63;;
974;SDS011;6115;49.296;10.602;2022-08-19T00:30:27;22.27;;;20.17;;
974;SDS011;6115;49.296;10.602;2022-08-19T00:35:28;23.40;;;21.00;;
974;SDS011;6115;49.296;10.602;2022-08-19T00:40:28;23.87;;;21.47;;
974;SDS011;6115;49.296;10.602;2022-08-19T00:45:30;24.63;;;22.10;;
974;SDS011;6115;49.296;10.602;2022-08-19T00:50:32;25.90;;;23.33;;
974;SDS011;6115;49.296;10.602;2022-08-19T00:55:34;23.63;;;21.33;;
974;SDS011;6115;49.296;10.602;2022-08-19T01:00:35;26.10;;;23.57;;
974;SDS011;6115;49.296;10.602;2022-08-19T01:05:37;25.90;;;23.30;;
974;SDS011;6115;49.296;10.602;2022-08-19T01:10:47;26.10;;;23.37;;
974;SDS011;6115;49.296;10.602;2022-08-19T01:15:55;26.27;;;23.67;;
974;SDS011;6115;49.296;10.602;2022-08-19T01:21:02;25.30;;;22.80;;
974;SDS011;6115;49.296;10.602;2022-08-19T01:26:18;25.53;;;23.03;;
974;SDS011;6115;49.296;10.602;2022-08-19T01:31:22;26.20;;;23.50;;
974;SDS011;6115;49.296;10.602;2022-08-19T01:36:29;26.13;;;23.40;;
974;SDS011;6115;49.296;10.602;2022-08-19T01:41:33;25.37;;;22.00;;
974;SDS011;6115;49.296;10.602;2022-08-19T01:46:33;26.23;;;23.70;;
974;SDS011;6115;49.296;10.602;2022-08-19T01:51:35;25.80;;;23.10;;
974;SDS011;6115;49.296;10.602;2022-08-19T01:56:36;24.97;;;22.27;;
974;SDS011;6115;49.296;10.602;2022-08-19T02:01:38;25.70;;;23.00;;
974;SDS011;6115;49.296;10.602;2022-08-19T02:06:39;28.40;;;25.33;;
974;SDS011;6115;49.296;10.602;2022-08-19T02:11:39;31.20;;;24.40;;
974;SDS011;6115;49.296;10.602;2022-08-19T02:16:41;25.77;;;23.07;;
974;SDS011;6115;49.296;10.602;2022-08-19T02:21:42;26.97;;;24.13;;
974;SDS011;6115;49.296;10.602;2022-08-19T02:26:43;27.63;;;24.63;;
974;SDS011;6115;49.296;10.602;2022-08-19T02:31:44;26.97;;;23.90;;
974;SDS011;6115;49.296;10.602;2022-08-19T02:36:45;25.50;;;22.83;;
974;SDS011;6115;49.296;10.602;2022-08-19T02:41:45;27.80;;;24.67;;
974;SDS011;6115;49.296;10.602;2022-08-19T02:46:47;27.40;;;24.57;;
974;SDS011;6115;49.296;10.602;2022-08-19T02:51:50;28.60;;;23.87;;
974;SDS011;6115;49.296;10.602;2022-08-19T02:56:50;27.23;;;23.70;;
974;SDS011;6115;49.296;10.602;2022-08-19T03:01:51;29.10;;;23.50;;
974;SDS011;6115;49.296;10.602;2022-08-19T03:06:52;29.23;;;24.80;;
974;SDS011;6115;49.296;10.602;2022-08-19T03:11:53;34.80;;;24.53;;
974;SDS011;6115;49.296;10.602;2022-08-19T03:16:54;27.50;;;24.53;;
974;SDS011;6115;49.296;10.602;2022-08-19T03:21:55;28.43;;;24.80;;
974;SDS011;6115;49.296;10.602;2022-08-19T03:26:55;30.00;;;24.63;;
974;SDS011;6115;49.296;10.602;2022-08-19T03:31:57;28.80;;;25.37;;
974;SDS011;6115;49.296;10.602;2022-08-19T03:37:03;30.10;;;24.43;;
974;SDS011;6115;49.296;10.602;2022-08-19T03:42:06;24.47;;;21.70;;
974;SDS011;6115;49.296;10.602;2022-08-19T03:47:06;28.30;;;23.20;;
974;SDS011;6115;49.296;10.602;2022-08-19T03:52:07;27.43;;;23.57;;
974;SDS011;6115;49.296;10.602;2022-08-19T03:57:08;26.33;;;23.13;;
974;SDS011;6115;49.296;10.602;2022-08-19T04:02:09;27.10;;;23.23;;
974;SDS011;6115;49.296;10.602;2022-08-19T04:07:12;29.53;;;25.00;;
974;SDS011;6115;49.296;10.602;2022-08-19T04:12:18;28.13;;;24.73;;
974;SDS011;6115;49.296;10.602;2022-08-19T04:17:20;31.40;;;25.23;;
974;SDS011;6115;49.296;10.602;2022-08-19T04:22:21;30.07;;;24.10;;
974;SDS011;6115;49.296;10.602;2022-08-19T04:27:24;26.20;;;23.43;;
974;SDS011;6115;49.296;10.602;2022-08-19T04:32:25;28.37;;;24.10;;
974;SDS011;6115;49.296;10.602;2022-08-19T04:37:26;27.37;;;24.10;;
974;SDS011;6115;49.296;10.602;2022-08-19T04:42:27;28.67;;;23.60;;
974;SDS011;6115;49.296;10.602;2022-08-19T04:47:40;33.10;;;23.97;;
974;SDS011;6115;49.296;10.602;2022-08-19T04:52:42;28.53;;;23.70;;
974;SDS011;6115;49.296;10.602;2022-08-19T04:57:42;29.13;;;24.67;;
974;SDS011;6115;49.296;10.602;2022-08-19T05:02:43;29.80;;;24.87;;
974;SDS011;6115;49.296;10.602;2022-08-19T05:07:44;32.33;;;24.60;;
974;SDS011;6115;49.296;10.602;2022-08-19T05:12:44;29.23;;;25.87;;
974;SDS011;6115;49.296;10.602;2022-08-19T05:17:45;27.43;;;24.50;;
974;SDS011;6115;49.296;10.602;2022-08-19T05:23:05;27.50;;;23.77;;
974;SDS011;6115;49.296;10.602;2022-08-19T05:28:06;29.07;;;25.63;;
974;SDS011;6115;49.296;10.602;2022-08-19T05:33:07;29.30;;;25.60;;
974;SDS011;6115;49.296;10.602;2022-08-19T05:38:10;27.73;;;24.10;;
974;SDS011;6115;49.296;10.602;2022-08-19T05:43:11;26.83;;;23.97;;
974;SDS011;6115;49.296;10.602;2022-08-19T05:48:12;27.27;;;24.20;;
974;SDS011;6115;49.296;10.602;2022-08-19T05:53:13;27.70;;;24.30;;
974;SDS011;6115;49.296;10.602;2022-08-19T05:58:16;29.50;;;24.80;;
974;SDS011;6115;49.296;10.602;2022-08-19T06:03:17;27.37;;;24.47;;
974;SDS011;6115;49.296;10.602;2022-08-19T06:08:17;27.47;;;24.00;;
974;SDS011;6115;49.296;10.602;2022-08-19T06:13:19;30.20;;;26.40;;
974;SDS011;6115;49.296;10.602;2022-08-19T06:18:21;27.40;;;24.53;;
974;SDS011;6115;49.296;10.602;2022-08-19T06:23:21;27.43;;;24.53;;
974;SDS011;6115;49.296;10.602;2022-08-19T06:28:22;34.33;;;25.90;;
974;SDS011;6115;49.296;10.602;2022-08-19T06:33:23;28.33;;;24.73;;
974;SDS011;6115;49.296;10.602;2022-08-19T06:38:24;27.43;;;23.77;;
974;SDS011;6115;49.296;10.602;2022-08-19T06:43:24;25.43;;;22.73;;
974;SDS011;6115;49.296;10.602;2022-08-19T06:48:25;28.20;;;24.40;;
974;SDS011;6115;49.296;10.602;2022-08-19T06:53:26;26.73;;;23.63;;
974;SDS011;6115;49.296;10.602;2022-08-19T06:58:28;25.73;;;22.23;;
974;SDS011;6115;49.296;10.602;2022-08-19T07:03:33;25.30;;;22.57;;
974;SDS011;6115;49.296;10.602;2022-08-19T07:08:35;25.07;;;22.47;;
974;SDS011;6115;49.296;10.602;2022-08-19T07:13:38;23.77;;;20.83;;
974;SDS011;6115;49.296;10.602;2022-08-19T07:18:39;23.33;;;21.00;;
974;SDS011;6115;49.296;10.602;2022-08-19T07:23:41;24.70;;;21.40;;
974;SDS011;6115;49.296;10.602;2022-08-19T07:28:42;23.50;;;21.17;;
974;SDS011;6115;49.296;10.602;2022-08-19T07:33:45;22.90;;;20.70;;
974;SDS011;6115;49.296;10.602;2022-08-19T07:38:47;24.20;;;21.70;;
974;SDS011;6115;49.296;10.602;2022-08-19T07:43:49;23.13;;;20.83;;
974;SDS011;6115;49.296;10.602;2022-08-19T07:48:51;25.90;;;20.53;;
974;SDS011;6115;49.296;10.602;2022-08-19T07:53:52;21.90;;;19.37;;
974;SDS011;6115;49.296;10.602;2022-08-19T07:58:52;24.43;;;20.23;;
974;SDS011;6115;49.296;10.602;2022-08-19T08:03:53;21.73;;;19.43;;
974;SDS011;6115;49.296;10.602;2022-08-19T08:09:15;22.07;;;19.77;;
974;SDS011;6115;49.296;10.602;2022-08-19T08:14:23;21.60;;;19.50;;
974;SDS011;6115;49.296;10.602;2022-08-19T08:19:27;25.13;;;22.43;;
974;SDS011;6115;49.296;10.602;2022-08-19T08:24:29;26.60;;;22.00;;
974;SDS011;6115;49.296;10.602;2022-08-19T08:29:33;26.17;;;22.03;;
974;SDS011;6115;49.296;10.602;2022-08-19T08:34:34;27.93;;;23.20;;
974;SDS011;6115;49.296;10.602;2022-08-19T08:39:34;24.53;;;21.90;;
974;SDS011;6115;49.296;10.602;2022-08-19T08:44:43;30.40;;;22.17;;
974;SDS011;6115;49.296;10.602;2022-08-19T08:49:59;26.80;;;21.47;;
974;SDS011;6115;49.296;10.602;2022-08-19T08:55:05;24.57;;;21.13;;
974;SDS011;6115;49.296;10.602;2022-08-19T09:00:11;23.90;;;21.40;;
974;SDS011;6115;49.296;10.602;2022-08-19T09:05:18;23.80;;;21.30;;
974;SDS011;6115;49.296;10.602;2022-08-19T09:15:46;23.23;;;20.73;;
974;SDS011;6115;49.296;10.602;2022-08-19T09:20:51;25.00;;;21.03;;
974;SDS011;6115;49.296;10.602;2022-08-19T09:25:53;23.10;;;20.73;;
974;SDS011;6115;49.296;10.602;2022-08-19T09:30:53;22.93;;;20.27;;
974;SDS011;6115;49.296;10.602;2022-08-19T09:36:07;22.30;;;20.03;;
974;SDS011;6115;49.296;10.602;2022-08-19T09:41:10;21.50;;;19.40;;
974;SDS011;6115;49.296;10.602;2022-08-19T09:46:13;21.30;;;19.30;;
974;SDS011;6115;49.296;10.602;2022-08-19T09:51:17;20.77;;;18.83;;
974;SDS011;6115;49.296;10.602;2022-08-19T09:56:20;23.47;;;20.43;;
974;SDS011;6115;49.296;10.602;2022-08-19T10:01:23;20.73;;;18.83;;
974;SDS011;6115;49.296;10.602;2022-08-19T10:06:26;20.90;;;18.90;;
974;SDS011;6115;49.296;10.602;2022-08-19T10:11:30;20.53;;;18.53;;
974;SDS011;6115;49.296;10.602;2022-08-19T10:16:31;23.30;;;19.37;;
974;SDS011;6115;49.296;10.602;2022-08-19T10:21:33;20.73;;;18.70;;
974;SDS011;6115;49.296;10.602;2022-08-19T10:26:35;20.03;;;17.90;;
974;SDS011;6115;49.296;10.602;2022-08-19T10:31:37;20.40;;;18.40;;
974;SDS011;6115;49.296;10.602;2022-08-19T10:36:38;20.47;;;17.73;;
974;SDS011;6115;49.296;10.602;2022-08-19T10:41:39;21.30;;;18.07;;
974;SDS011;6115;49.296;10.602;2022-08-19T10:46:41;20.30;;;18.33;;
974;SDS011;6115;49.296;10.602;2022-08-19T10:51:46;21.43;;;19.20;;
974;SDS011;6115;49.296;10.602;2022-08-19T10:57:06;20.00;;;18.00;;
974;SDS011;6115;49.296;10.602;2022-08-19T11:02:07;19.57;;;17.70;;
974;SDS011;6115;49.296;10.602;2022-08-19T11:07:10;20.13;;;18.13;;
974;SDS011;6115;49.296;10.602;2022-08-19T11:12:14;19.83;;;17.83;;
974;SDS011;6115;49.296;10.602;2022-08-19T11:17:15;20.13;;;18.03;;
974;SDS011;6115;49.296;10.602;2022-08-19T11:22:16;20.20;;;18.10;;
974;SDS011;6115;49.296;10.602;2022-08-19T11:27:17;19.80;;;17.80;;
974;SDS011;6115;49.296;10.602;2022-08-19T11:32:17;19.53;;;17.63;;
974;SDS011;6115;49.296;10.602;2022-08-19T11:37:18;19.53;;;17.63;;
974;SDS011;6115;49.296;10.602;2022-08-19T11:42:19;19.43;;;17.43;;
974;SDS011;6115;49.296;10.602;2022-08-19T11:47:38;18.03;;;16.37;;
974;SDS011;6115;49.296;10.602;2022-08-19T11:52:39;19.30;;;17.30;;
974;SDS011;6115;49.296;10.602;2022-08-19T11:57:40;22.07;;;19.87;;
974;SDS011;6115;49.296;10.602;2022-08-19T12:02:42;23.27;;;20.87;;
974;SDS011;6115;49.296;10.602;2022-08-19T12:07:43;23.10;;;20.77;;
974;SDS011;6115;49.296;10.602;2022-08-19T12:12:43;23.23;;;19.80;;
974;SDS011;6115;49.296;10.602;2022-08-19T12:17:46;21.40;;;19.30;;
974;SDS011;6115;49.296;10.602;2022-08-19T12:22:46;19.73;;;17.90;;
974;SDS011;6115;49.296;10.602;2022-08-19T12:27:48;20.53;;;18.50;;
974;SDS011;6115;49.296;10.602;2022-08-19T12:32:49;21.50;;;19.20;;
974;SDS011;6115;49.296;10.602;2022-08-19T12:37:51;22.90;;;20.60;;
974;SDS011;6115;49.296;10.602;2022-08-19T12:42:52;25.30;;;22.60;;
974;SDS011;6115;49.296;10.602;2022-08-19T12:47:53;27.30;;;24.50;;
974;SDS011;6115;49.296;10.602;2022-08-19T12:52:53;25.70;;;23.07;;
974;SDS011;6115;49.296;10.602;2022-08-19T12:57:54;26.53;;;23.53;;
974;SDS011;6115;49.296;10.602;2022-08-19T13:02:55;26.60;;;23.80;;
974;SDS011;6115;49.296;10.602;2022-08-19T13:07:57;24.37;;;22.07;;
974;SDS011;6115;49.296;10.602;2022-08-19T13:12:59;24.43;;;22.00;;
974;SDS011;6115;49.296;10.602;2022-08-19T13:18:01;24.50;;;21.87;;
974;SDS011;6115;49.296;10.602;2022-08-19T13:23:02;23.97;;;21.47;;
974;SDS011;6115;49.296;10.602;2022-08-19T13:28:04;24.17;;;21.57;;
974;SDS011;6115;49.296;10.602;2022-08-19T13:33:07;26.57;;;23.70;;
974;SDS011;6115;49.296;10.602;2022-08-19T13:38:11;26.50;;;23.70;;
974;SDS011;6115;49.296;10.602;2022-08-19T13:43:13;24.07;;;21.67;;
974;SDS011;6115;49.296;10.602;2022-08-19T13:48:14;24.30;;;21.67;;
974;SDS011;6115;49.296;10.602;2022-08-19T13:53:16;23.77;;;21.37;;
974;SDS011;6115;49.296;10.602;2022-08-19T13:58:17;24.00;;;21.07;;
974;SDS011;6115;49.296;10.602;2022-08-19T14:03:18;23.10;;;20.90;;
974;SDS011;6115;49.296;10.602;2022-08-19T14:08:19;20.57;;;18.30;;
974;SDS011;6115;49.296;10.602;2022-08-19T14:13:20;18.70;;;17.10;;
974;SDS011;6115;49.296;10.602;2022-08-19T14:18:22;20.30;;;17.93;;
974;SDS011;6115;49.296;10.602;2022-08-19T14:23:24;17.80;;;15.87;;
974;SDS011;6115;49.296;10.602;2022-08-19T14:28:25;20.33;;;17.83;;
974;SDS011;6115;49.296;10.602;2022-08-19T14:33:26;21.70;;;17.17;;
974;SDS011;6115;49.296;10.602;2022-08-19T14:38:26;19.33;;;16.80;;
974;SDS011;6115;49.296;10.602;2022-08-19T14:43:31;18.80;;;16.80;;
974;SDS011;6115;49.296;10.602;2022-08-19T14:48:31;19.50;;;17.60;;
974;SDS011;6115;49.296;10.602;2022-08-19T14:53:32;19.07;;;16.67;;
974;SDS011;6115;49.296;10.602;2022-08-19T14:58:33;19.40;;;16.90;;
974;SDS011;6115;49.296;10.602;2022-08-19T15:03:34;21.13;;;18.60;;
974;SDS011;6115;49.296;10.602;2022-08-19T15:08:35;21.10;;;17.10;;
974;SDS011;6115;49.296;10.602;2022-08-19T15:13:38;23.13;;;18.80;;
974;SDS011;6115;49.296;10.602;2022-08-19T15:18:39;26.53;;;19.23;;
974;SDS011;6115;49.296;10.602;2022-08-19T15:23:42;21.40;;;18.07;;
974;SDS011;6115;49.296;10.602;2022-08-19T15:28:48;21.90;;;17.87;;
974;SDS011;6115;49.296;10.602;2022-08-19T15:33:49;28.70;;;19.93;;
974;SDS011;6115;49.296;10.602;2022-08-19T15:38:49;23.70;;;19.27;;
974;SDS011;6115;49.296;10.602;2022-08-19T15:44:03;21.13;;;17.90;;
974;SDS011;6115;49.296;10.602;2022-08-19T15:49:10;20.57;;;17.10;;
974;SDS011;6115;49.296;10.602;2022-08-19T15:54:13;20.30;;;17.87;;
974;SDS011;6115;49.296;10.602;2022-08-19T15:59:15;22.90;;;17.83;;
974;SDS011;6115;49.296;10.602;2022-08-19T16:04:35;22.70;;;17.07;;
974;SDS011;6115;49.296;10.602;2022-08-19T16:09:54;22.17;;;16.43;;
974;SDS011;6115;49.296;10.602;2022-08-19T16:14:55;22.30;;;16.47;;
974;SDS011;6115;49.296;10.602;2022-08-19T16:19:56;20.03;;;14.47;;
974;SDS011;6115;49.296;10.602;2022-08-19T16:24:57;20.70;;;16.77;;
974;SDS011;6115;49.296;10.602;2022-08-19T16:29:58;23.87;;;16.83;;
974;SDS011;6115;49.296;10.602;2022-08-19T16:35:01;23.03;;;15.97;;
974;SDS011;6115;49.296;10.602;2022-08-19T16:40:04;17.93;;;14.70;;
974;SDS011;6115;49.296;10.602;2022-08-19T16:45:07;18.33;;;15.30;;
974;SDS011;6115;49.296;10.602;2022-08-19T16:50:08;19.80;;;15.00;;
974;SDS011;6115;49.296;10.602;2022-08-19T16:55:09;21.80;;;16.20;;
974;SDS011;6115;49.296;10.602;2022-08-19T17:00:10;19.17;;;16.77;;
974;SDS011;6115;49.296;10.602;2022-08-19T17:05:12;23.57;;;16.07;;
974;SDS011;6115;49.296;10.602;2022-08-19T17:10:14;24.80;;;16.47;;
974;SDS011;6115;49.296;10.602;2022-08-19T17:15:14;24.00;;;16.27;;
974;SDS011;6115;49.296;10.602;2022-08-19T17:20:15;21.77;;;17.03;;
974;SDS011;6115;49.296;10.602;2022-08-19T17:25:15;21.07;;;16.07;;
974;SDS011;6115;49.296;10.602;2022-08-19T17:30:17;22.13;;;17.67;;
974;SDS011;6115;49.296;10.602;2022-08-19T17:35:18;22.70;;;18.03;;
974;SDS011;6115;49.296;10.602;2022-08-19T17:40:19;23.07;;;17.70;;
974;SDS011;6115;49.296;10.602;2022-08-19T17:45:20;26.63;;;19.50;;
974;SDS011;6115;49.296;10.602;2022-08-19T17:50:21;22.53;;;17.87;;
974;SDS011;6115;49.296;10.602;2022-08-19T17:55:22;30.47;;;20.83;;
974;SDS011;6115;49.296;10.602;2022-08-19T18:00:23;30.80;;;22.20;;
974;SDS011;6115;49.296;10.602;2022-08-19T18:05:25;30.23;;;21.33;;
974;SDS011;6115;49.296;10.602;2022-08-19T18:10:30;33.37;;;22.57;;
974;SDS011;6115;49.296;10.602;2022-08-19T18:15:31;29.73;;;21.70;;
974;SDS011;6115;49.296;10.602;2022-08-19T18:20:32;26.67;;;17.87;;
974;SDS011;6115;49.296;10.602;2022-08-19T18:25:32;24.47;;;18.20;;
974;SDS011;6115;49.296;10.602;2022-08-19T18:30:33;24.23;;;15.90;;
974;SDS011;6115;49.296;10.602;2022-08-19T18:35:34;24.90;;;15.43;;
974;SDS011;6115;49.296;10.602;2022-08-19T18:40:37;2.90;;;1.73;;
974;SDS011;6115;49.296;10.602;2022-08-19T18:45:56;0.70;;;0.30;;
974;SDS011;6115;49.296;10.602;2022-08-19T18:51:16;0.70;;;0.30;;
974;SDS011;6115;49.296;10.602;2022-08-19T18:56:18;0.80;;;0.53;;
974;SDS011;6115;49.296;10.602;2022-08-19T19:01:52;2.53;;;2.33;;
974;SDS011;6115;49.296;10.602;2022-08-19T19:06:49;0.70;;;0.30;;
974;SDS011;6115;49.296;10.602;2022-08-19T19:11:51;0.70;;;0.53;;
974;SDS011;6115;49.296;10.602;2022-08-19T19:17:00;0.70;;;0.30;;
974;SDS011;6115;49.296;10.602;2022-08-19T19:22:03;0.70;;;0.30;;
974;SDS011;6115;49.296;10.602;2022-08-19T19:27:04;0.70;;;0.50;;
974;SDS011;6115;49.296;10.602;2022-08-19T19:32:09;0.70;;;0.40;;
974;SDS011;6115;49.296;10.602;2022-08-19T19:37:15;0.70;;;0.30;;
974;SDS011;6115;49.296;10.602;2022-08-19T19:42:18;0.80;;;0.70;;
974;SDS011;6115;49.296;10.602;2022-08-19T19:47:20;0.70;;;0.40;;
974;SDS011;6115;49.296;10.602;2022-08-19T19:52:24;2.60;;;2.00;;
974;SDS011;6115;49.296;10.602;2022-08-19T19:57:25;1.30;;;0.63;;
974;SDS011;6115;49.296;10.602;2022-08-19T20:02:26;0.70;;;0.60;;
974;SDS011;6115;49.296;10.602;2022-08-19T20:07:26;3.60;;;2.73;;
974;SDS011;6115;49.296;10.602;2022-08-19T20:12:45;0.70;;;0.40;;
974;SDS011;6115;49.296;10.602;2022-08-19T20:17:46;0.70;;;0.37;;
974;SDS011;6115;49.296;10.602;2022-08-19T20:22:47;0.70;;;0.40;;
974;SDS011;6115;49.296;10.602;2022-08-19T20:27:48;0.70;;;0.30;;
974;SDS011;6115;49.296;10.602;2022-08-19T20:32:49;0.70;;;0.30;;
974;SDS011;6115;49.296;10.602;2022-08-19T20:37:50;0.70;;;0.30;;
974;SDS011;6115;49.296;10.602;2022-08-19T20:42:53;0.70;;;0.30;;
974;SDS011;6115;49.296;10.602;2022-08-19T20:47:54;0.70;;;0.30;;
974;SDS011;6115;49.296;10.602;2022-08-19T20:52:54;0.70;;;0.30;;
974;SDS011;6115;49.296;10.602;2022-08-19T20:57:55;0.70;;;0.40;;
974;SDS011;6115;49.296;10.602;2022-08-19T21:02:57;0.70;;;0.30;;
974;SDS011;6115;49.296;10.602;2022-08-19T21:07:58;0.70;;;0.40;;
974;SDS011;6115;49.296;10.602;2022-08-19T21:12:58;0.70;;;0.30;;
974;SDS011;6115;49.296;10.602;2022-08-19T21:17:59;0.70;;;0.30;;
974;SDS011;6115;49.296;10.602;2022-08-19T21:23:06;0.70;;;0.30;;
974;SDS011;6115;49.296;10.602;2022-08-19T21:28:09;0.70;;;0.50;;
974;SDS011;6115;49.296;10.602;2022-08-19T21:33:10;0.70;;;0.50;;
974;SDS011;6115;49.296;10.602;2022-08-19T21:38:11;0.70;;;0.30;;
974;SDS011;6115;49.296;10.602;2022-08-19T21:43:11;0.70;;;0.30;;
974;SDS011;6115;49.296;10.602;2022-08-19T21:48:13;0.70;;;0.30;;
974;SDS011;6115;49.296;10.602;2022-08-19T21:53:17;0.70;;;0.30;;
974;SDS011;6115;49.296;10.602;2022-08-19T21:58:17;0.70;;;0.40;;
974;SDS011;6115;49.296;10.602;2022-08-19T22:03:18;0.70;;;0.40;;
974;SDS011;6115;49.296;10.602;2022-08-19T22:08:20;0.70;;;0.30;;
974;SDS011;6115;49.296;10.602;2022-08-19T22:13:20;0.70;;;0.30;;
974;SDS011;6115;49.296;10.602;2022-08-19T22:18:21;0.70;;;0.40;;
974;SDS011;6115;49.296;10.602;2022-08-19T22:23:22;0.80;;;0.80;;
974;SDS011;6115;49.296;10.602;2022-08-19T22:28:22;0.70;;;0.30;;
974;SDS011;6115;49.296;10.602;2022-08-19T22:33:23;0.70;;;0.30;;
974;SDS011;6115;49.296;10.602;2022-08-19T22:38:26;0.70;;;0.30;;
974;SDS011;6115;49.296;10.602;2022-08-19T22:43:28;0.80;;;0.60;;
974;SDS011;6115;49.296;10.602;2022-08-19T22:48:30;0.70;;;0.40;;
974;SDS011;6115;49.296;10.602;2022-08-19T22:53:32;0.70;;;0.30;;
974;SDS011;6115;49.296;10.602;2022-08-19T22:58:35;0.70;;;0.37;;
974;SDS011;6115;49.296;10.602;2022-08-19T23:03:37;0.70;;;0.40;;
974;SDS011;6115;49.296;10.602;2022-08-19T23:08:41;0.70;;;0.50;;
974;SDS011;6115;49.296;10.602;2022-08-19T23:13:42;0.70;;;0.30;;
974;SDS011;6115;49.296;10.602;2022-08-19T23:18:42;0.70;;;0.40;;
974;SDS011;6115;49.296;10.602;2022-08-19T23:23:44;0.70;;;0.50;;
974;SDS011;6115;49.296;10.602;2022-08-19T23:28:44;0.70;;;0.40;;
974;SDS011;6115;49.296;10.602;2022-08-19T23:34:04;0.70;;;0.40;;
974;SDS011;6115;49.296;10.602;2022-08-19T23:39:04;0.70;;;0.30;;
974;SDS011;6115;49.296;10.602;2022-08-19T23:44:05;1.67;;;0.83;;
974;SDS011;6115;49.296;10.602;2022-08-19T23:49:05;0.70;;;0.40;;
974;SDS011;6115;49.296;10.602;2022-08-19T23:54:06;0.70;;;0.37;;
974;SDS011;6115;49.296;10.602;2022-08-19T23:59:06;0.80;;;0.60;;
